createdAt,value
2023-04-10T00:00:35.700Z,13.80
2023-04-10T00:03:06.329Z,13.80
2023-04-10T00:05:39.400Z,13.80
2023-04-10T00:08:09.825Z,13.80
2023-04-10T00:10:40.226Z,13.70
2023-04-10T00:13:10.606Z,13.70
2023-04-10T00:15:41.016Z,13.70
2023-04-10T00:18:11.506Z,13.60
2023-04-10T00:20:44.483Z,13.60
2023-04-10T00:23:14.949Z,13.60
2023-04-10T00:25:45.272Z,13.60
2023-04-10T00:28:16.775Z,13.50
2023-04-10T00:30:47.243Z,13.50
2023-04-10T00:33:17.754Z,13.40
2023-04-10T00:35:50.898Z,13.50
2023-04-10T00:38:21.722Z,13.50
2023-04-10T00:40:52.278Z,13.40
2023-04-10T00:43:22.793Z,13.50
2023-04-10T00:45:53.177Z,13.50
2023-04-10T00:48:23.959Z,13.50
2023-04-10T00:50:57.059Z,13.50
2023-04-10T00:53:27.720Z,13.50
2023-04-10T00:55:59.079Z,13.40
2023-04-10T00:58:29.477Z,13.40
2023-04-10T01:00:59.804Z,13.50
2023-04-10T01:03:30.435Z,13.50
2023-04-10T01:06:11.611Z,13.40
2023-04-10T01:08:50.580Z,13.40
2023-04-10T01:11:42.614Z,13.40
2023-04-10T01:14:19.629Z,13.40
2023-04-10T01:16:56.898Z,13.40
2023-04-10T01:19:36.683Z,13.40
2023-04-10T01:22:13.859Z,13.40
2023-04-10T01:24:59.695Z,13.40
2023-04-10T01:27:43.319Z,13.30
2023-04-10T01:30:20.640Z,13.30
2023-04-10T01:32:53.007Z,13.30
2023-04-10T01:35:24.066Z,13.30
2023-04-10T01:37:56.834Z,13.30
2023-04-10T01:40:29.858Z,13.30
2023-04-10T01:43:03.545Z,13.30
2023-04-10T01:45:49.549Z,13.30
2023-04-10T01:48:20.794Z,13.20
2023-04-10T01:50:52.111Z,13.10
2023-04-10T01:53:23.322Z,13.20
2023-04-10T01:55:54.896Z,13.20
2023-04-10T01:58:25.910Z,13.20
2023-04-10T02:01:01.794Z,13.10
2023-04-10T02:03:32.423Z,13.10
2023-04-10T02:06:14.400Z,13.10
2023-04-10T02:08:52.733Z,13.10
2023-04-10T02:11:32.550Z,13.10
2023-04-10T02:14:07.226Z,13.00
2023-04-10T02:16:42.283Z,13.00
2023-04-10T02:19:14.106Z,13.00
2023-04-10T02:21:48.329Z,12.90
2023-04-10T02:24:18.887Z,12.90
2023-04-10T02:26:49.884Z,12.90
2023-04-10T02:29:21.208Z,12.90
2023-04-10T02:31:54.196Z,12.90
2023-04-10T02:34:24.580Z,12.80
2023-04-10T02:36:55.188Z,12.80
2023-04-10T02:39:25.606Z,12.90
2023-04-10T02:41:56.781Z,12.80
2023-04-10T02:44:27.361Z,12.80
2023-04-10T02:47:00.529Z,12.80
2023-04-10T02:49:32.336Z,12.70
2023-04-10T02:52:09.318Z,12.80
2023-04-10T02:54:39.784Z,12.70
2023-04-10T02:57:10.630Z,12.60
2023-04-10T02:59:41.188Z,12.60
2023-04-10T03:02:14.675Z,12.60
2023-04-10T03:04:45.813Z,12.60
2023-04-10T03:07:17.364Z,12.60
2023-04-10T03:09:47.794Z,12.60
2023-04-10T03:12:18.740Z,12.50
2023-04-10T03:14:49.122Z,12.50
2023-04-10T03:17:22.131Z,12.50
2023-04-10T03:19:52.584Z,12.40
2023-04-10T03:22:23.302Z,12.40
2023-04-10T03:24:53.860Z,12.50
2023-04-10T03:27:24.225Z,12.40
2023-04-10T03:29:55.378Z,12.40
2023-04-10T03:32:28.447Z,12.40
2023-04-10T03:34:58.989Z,12.40
2023-04-10T03:37:30.052Z,12.40
2023-04-10T03:40:00.589Z,12.40
2023-04-10T03:42:31.079Z,12.40
2023-04-10T03:45:02.939Z,12.40
2023-04-10T03:47:36.468Z,12.40
2023-04-10T03:50:10.822Z,12.30
2023-04-10T03:52:50.005Z,12.40
2023-04-10T03:55:22.273Z,12.30
2023-04-10T03:57:54.493Z,12.30
2023-04-10T04:00:28.543Z,12.30
2023-04-10T04:03:09.772Z,12.30
2023-04-10T04:06:06.657Z,12.20
2023-04-10T04:08:41.726Z,12.20
2023-04-10T04:11:15.089Z,12.10
2023-04-10T04:14:04.516Z,12.20
2023-04-10T04:17:01.579Z,12.10
2023-04-10T04:19:34.583Z,12.10
2023-04-10T04:22:25.305Z,12.00
2023-04-10T04:25:21.850Z,12.00
2023-04-10T04:28:14.024Z,12.00
2023-04-10T04:30:51.518Z,12.00
2023-04-10T04:33:30.955Z,12.00
2023-04-10T04:36:08.283Z,11.90
2023-04-10T04:39:05.093Z,11.90
2023-04-10T04:41:46.771Z,11.90
2023-04-10T04:44:46.978Z,12.00
2023-04-10T04:47:46.571Z,12.00
2023-04-10T04:50:45.019Z,11.90
2023-04-10T04:53:37.194Z,11.90
2023-04-10T04:56:30.620Z,11.80
2023-04-10T04:59:33.499Z,11.80
2023-04-10T05:02:22.974Z,11.80
2023-04-10T05:05:19.827Z,11.80
2023-04-10T05:08:01.194Z,11.80
2023-04-10T05:11:06.457Z,11.80
2023-04-10T05:14:09.571Z,11.80
2023-04-10T05:17:03.715Z,11.80
2023-04-10T05:20:04.544Z,11.70
2023-04-10T05:23:11.306Z,11.70
2023-04-10T05:25:56.809Z,11.70
2023-04-10T05:28:57.017Z,11.80
2023-04-10T05:31:36.854Z,11.70
2023-04-10T05:34:23.672Z,11.70
2023-04-10T05:37:13.289Z,11.60
2023-04-10T05:39:48.979Z,11.60
2023-04-10T05:42:36.650Z,11.60
2023-04-10T05:45:18.977Z,11.70
2023-04-10T05:48:16.865Z,11.70
2023-04-10T05:51:06.846Z,11.70
2023-04-10T05:54:15.648Z,11.70
2023-04-10T05:57:04.757Z,11.60
2023-04-10T05:59:53.695Z,11.70
2023-04-10T06:02:45.498Z,11.70
2023-04-10T06:05:25.207Z,11.70
2023-04-10T06:08:02.299Z,11.70
2023-04-10T06:10:33.117Z,11.70
2023-04-10T06:13:03.813Z,11.70
2023-04-10T06:15:34.985Z,11.80
2023-04-10T06:18:11.187Z,11.80
2023-04-10T06:20:41.739Z,11.80
2023-04-10T06:23:12.637Z,11.80
2023-04-10T06:25:43.198Z,11.80
2023-04-10T06:28:13.577Z,11.80
2023-04-10T06:30:46.555Z,11.80
2023-04-10T06:33:20.182Z,11.80
2023-04-10T06:35:51.088Z,11.80
2023-04-10T06:38:23.704Z,11.80
2023-04-10T06:40:54.693Z,11.90
2023-04-10T06:43:25.123Z,11.90
2023-04-10T06:45:55.622Z,11.90
2023-04-10T06:48:28.558Z,12.00
2023-04-10T06:51:00.795Z,11.90
2023-04-10T06:53:31.261Z,11.90
2023-04-10T06:56:03.630Z,12.00
2023-04-10T06:58:34.335Z,11.90
2023-04-10T07:01:05.270Z,12.00
2023-04-10T07:03:38.593Z,12.00
2023-04-10T07:06:09.707Z,12.00
2023-04-10T07:08:40.116Z,12.00
2023-04-10T07:11:10.712Z,12.00
2023-04-10T07:13:41.080Z,12.10
2023-04-10T07:16:12.969Z,12.10
2023-04-10T07:18:47.388Z,12.10
2023-04-10T07:21:18.016Z,12.20
2023-04-10T07:23:48.476Z,12.20
2023-04-10T07:26:18.921Z,12.20
2023-04-10T07:28:49.314Z,12.30
2023-04-10T07:31:20.789Z,12.30
2023-04-10T07:33:53.861Z,12.30
2023-04-10T07:36:24.229Z,12.40
2023-04-10T07:38:55.013Z,12.40
2023-04-10T07:41:25.758Z,12.40
2023-04-10T07:43:56.118Z,12.50
2023-04-10T07:46:27.013Z,12.50
2023-04-10T07:49:00.002Z,12.50
2023-04-10T07:51:31.214Z,12.60
2023-04-10T07:54:01.709Z,12.60
2023-04-10T07:56:33.199Z,12.60
2023-04-10T07:59:04.066Z,12.60
2023-04-10T08:01:34.512Z,12.70
2023-04-10T08:04:07.907Z,12.70
2023-04-10T08:06:38.413Z,12.70
2023-04-10T08:09:08.812Z,12.80
2023-04-10T08:11:40.086Z,12.80
2023-04-10T08:14:10.757Z,12.80
2023-04-10T08:16:41.573Z,12.90
2023-04-10T08:19:14.548Z,12.90
2023-04-10T08:21:44.989Z,12.90
2023-04-10T08:24:15.346Z,12.90
2023-04-10T08:26:45.745Z,13.00
2023-04-10T08:29:16.085Z,13.10
2023-04-10T08:31:46.756Z,13.10
2023-04-10T08:34:20.524Z,13.10
2023-04-10T08:36:51.012Z,13.10
2023-04-10T08:39:21.432Z,13.20
2023-04-10T08:41:51.979Z,13.20
2023-04-10T08:44:22.416Z,13.20
2023-04-10T08:46:54.924Z,13.30
2023-04-10T08:49:41.635Z,13.30
2023-04-10T08:52:16.853Z,13.30
2023-04-10T08:54:51.305Z,13.40
2023-04-10T08:57:22.713Z,13.40
2023-04-10T08:59:54.404Z,13.40
2023-04-10T09:02:25.561Z,13.40
2023-04-10T09:05:00.979Z,13.50
2023-04-10T09:07:31.389Z,13.50
2023-04-10T09:10:01.721Z,13.50
2023-04-10T09:12:32.283Z,13.60
2023-04-10T09:15:02.676Z,13.50
2023-04-10T09:17:33.992Z,13.60
2023-04-10T09:20:23.627Z,13.60
2023-04-10T09:22:54.032Z,13.70
2023-04-10T09:25:36.448Z,13.70
2023-04-10T09:28:08.216Z,13.80
2023-04-10T09:30:40.782Z,13.80
2023-04-10T09:33:27.842Z,13.90
2023-04-10T09:36:01.898Z,13.90
2023-04-10T09:38:32.902Z,14.00
2023-04-10T09:41:13.003Z,14.00
2023-04-10T09:43:43.753Z,14.10
2023-04-10T09:46:14.860Z,14.10
2023-04-10T09:48:59.673Z,14.10
2023-04-10T09:51:37.278Z,14.10
2023-04-10T09:54:08.222Z,14.10
2023-04-10T09:56:41.781Z,14.20
2023-04-10T09:59:12.686Z,14.20
2023-04-10T10:01:44.099Z,14.40
2023-04-10T10:04:17.546Z,14.50
2023-04-10T10:06:51.001Z,14.50
2023-04-10T10:09:21.588Z,14.60
2023-04-10T10:11:54.479Z,14.60
2023-04-10T10:14:26.499Z,14.70
2023-04-10T10:16:59.759Z,14.80
2023-04-10T10:19:34.811Z,14.80
2023-04-10T10:22:09.434Z,14.90
2023-04-10T10:24:41.652Z,14.90
2023-04-10T10:27:13.558Z,15.10
2023-04-10T10:29:44.724Z,15.10
2023-04-10T10:32:16.978Z,15.30
2023-04-10T10:34:47.880Z,15.50
2023-04-10T10:37:21.792Z,15.70
2023-04-10T10:40:00.680Z,15.70
2023-04-10T10:42:37.416Z,15.70
2023-04-10T10:45:14.222Z,15.70
2023-04-10T10:47:47.933Z,15.80
2023-04-10T10:50:18.323Z,15.90
2023-04-10T10:52:53.253Z,16.00
2023-04-10T10:55:35.305Z,16.00
2023-04-10T10:58:10.145Z,16.00
2023-04-10T11:01:10.338Z,16.10
2023-04-10T11:03:42.251Z,16.20
2023-04-10T11:06:13.698Z,16.20
2023-04-10T11:08:48.871Z,16.30
2023-04-10T11:11:21.913Z,16.30
2023-04-10T11:14:20.216Z,16.30
2023-04-10T11:16:50.734Z,16.30
2023-04-10T11:19:23.644Z,16.40
2023-04-10T11:22:09.314Z,16.40
2023-04-10T11:25:12.442Z,16.50
2023-04-10T11:27:53.123Z,16.50
2023-04-10T11:30:31.013Z,16.50
2023-04-10T11:33:02.211Z,16.60
2023-04-10T11:35:34.386Z,16.60
2023-04-10T11:38:28.813Z,16.60
2023-04-10T11:41:01.921Z,16.60
2023-04-10T11:43:36.144Z,16.60
2023-04-10T11:46:10.605Z,16.70
2023-04-10T11:48:41.368Z,16.80
2023-04-10T11:51:13.433Z,16.90
2023-04-10T11:53:44.621Z,16.90
2023-04-10T11:56:22.782Z,16.90
2023-04-10T11:58:57.239Z,17.00
2023-04-10T12:01:28.100Z,17.00
2023-04-10T12:03:58.700Z,17.00
2023-04-10T12:06:29.411Z,17.00
2023-04-10T12:08:59.827Z,17.00
2023-04-10T12:11:30.905Z,17.10
2023-04-10T12:14:04.002Z,17.10
2023-04-10T12:16:36.356Z,17.20
2023-04-10T12:19:06.829Z,17.30
2023-04-10T12:21:39.370Z,17.20
2023-04-10T12:24:09.792Z,17.20
2023-04-10T12:26:40.633Z,17.10
2023-04-10T12:29:13.655Z,17.10
2023-04-10T12:31:44.220Z,17.10
2023-04-10T12:34:21.884Z,17.00
2023-04-10T12:36:56.467Z,17.00
2023-04-10T12:39:28.173Z,17.00
2023-04-10T12:42:14.466Z,17.00
2023-04-10T12:44:57.661Z,17.00
2023-04-10T12:47:29.280Z,16.90
2023-04-10T12:50:11.093Z,16.90
2023-04-10T12:52:44.826Z,17.00
2023-04-10T12:55:17.352Z,16.90
2023-04-10T12:57:49.097Z,17.00
2023-04-10T13:00:23.520Z,16.90
2023-04-10T13:02:54.251Z,17.00
2023-04-10T13:05:25.463Z,16.90
2023-04-10T13:07:55.894Z,17.00
2023-04-10T13:10:26.492Z,17.00
2023-04-10T13:12:56.930Z,17.00
2023-04-10T13:15:29.875Z,17.00
2023-04-10T13:18:00.512Z,16.90
2023-04-10T13:20:31.389Z,17.00
2023-04-10T13:23:03.103Z,17.00
2023-04-10T13:25:36.335Z,16.90
2023-04-10T13:28:10.318Z,16.90
2023-04-10T13:30:44.917Z,16.90
2023-04-10T13:33:15.425Z,16.90
2023-04-10T13:35:45.836Z,16.90
2023-04-10T13:38:16.694Z,16.90
2023-04-10T13:40:47.886Z,16.90
2023-04-10T13:43:18.353Z,16.90
2023-04-10T13:45:51.530Z,17.00
2023-04-10T13:48:24.547Z,17.00
2023-04-10T13:51:00.327Z,17.10
2023-04-10T13:53:30.818Z,17.10
2023-04-10T13:56:01.196Z,17.10
2023-04-10T13:58:34.404Z,17.10
2023-04-10T14:01:07.544Z,17.10
2023-04-10T14:03:38.156Z,17.10
2023-04-10T14:06:09.245Z,17.10
2023-04-10T14:08:39.939Z,17.10
2023-04-10T14:11:10.804Z,17.10
2023-04-10T14:13:41.498Z,17.00
2023-04-10T14:16:14.928Z,17.10
2023-04-10T14:18:45.872Z,17.10
2023-04-10T14:21:18.232Z,17.00
2023-04-10T14:23:50.767Z,17.10
2023-04-10T14:26:21.822Z,17.20
2023-04-10T14:28:52.522Z,17.10
2023-04-10T14:31:28.339Z,17.10
2023-04-10T14:33:59.866Z,17.10
2023-04-10T14:36:30.643Z,17.10
2023-04-10T14:39:01.170Z,17.10
2023-04-10T14:41:31.789Z,17.10
2023-04-10T14:44:02.196Z,17.10
2023-04-10T14:46:35.309Z,17.10
2023-04-10T14:49:05.888Z,17.10
2023-04-10T14:51:36.575Z,17.10
2023-04-10T14:54:08.170Z,17.00
2023-04-10T14:56:38.679Z,17.10
2023-04-10T14:59:09.956Z,17.10
2023-04-10T15:01:43.031Z,17.00
2023-04-10T15:04:14.832Z,17.00
2023-04-10T15:06:45.308Z,16.80
2023-04-10T15:09:15.829Z,16.70
2023-04-10T15:11:47.527Z,16.60
2023-04-10T15:14:17.972Z,16.50
2023-04-10T15:16:53.393Z,16.40
2023-04-10T15:19:24.506Z,16.40
2023-04-10T15:21:54.899Z,16.30
2023-04-10T15:24:25.350Z,16.30
2023-04-10T15:26:56.616Z,16.30
2023-04-10T15:29:27.101Z,16.30
2023-04-10T15:32:03.098Z,16.30
2023-04-10T15:34:33.533Z,16.20
2023-04-10T15:37:03.932Z,16.20
2023-04-10T15:39:34.312Z,16.20
2023-04-10T15:42:05.535Z,16.20
2023-04-10T15:44:35.979Z,16.10
2023-04-10T15:47:09.090Z,16.00
2023-04-10T15:49:39.470Z,16.00
2023-04-10T15:52:10.038Z,16.00
2023-04-10T15:54:42.607Z,16.00
2023-04-10T15:57:13.151Z,16.00
2023-04-10T15:59:43.496Z,15.90
2023-04-10T16:02:16.556Z,15.80
2023-04-10T16:04:47.141Z,15.70
2023-04-10T16:07:17.682Z,15.70
2023-04-10T16:09:48.027Z,15.60
2023-04-10T16:12:18.686Z,15.60
2023-04-10T16:14:49.083Z,15.50
2023-04-10T16:17:22.246Z,15.50
2023-04-10T16:19:52.674Z,15.40
2023-04-10T16:22:24.187Z,15.30
2023-04-10T16:24:58.574Z,15.20
2023-04-10T16:27:28.957Z,15.20
2023-04-10T16:29:59.314Z,15.10
2023-04-10T16:32:32.360Z,15.00
2023-04-10T16:35:02.918Z,15.00
2023-04-10T16:37:33.297Z,14.90
2023-04-10T16:40:03.674Z,14.90
2023-04-10T16:42:34.157Z,14.80
2023-04-10T16:45:05.002Z,14.80
2023-04-10T16:47:38.424Z,14.80
2023-04-10T16:50:10.475Z,14.80
2023-04-10T16:52:40.913Z,14.60
2023-04-10T16:55:11.801Z,14.70
2023-04-10T16:57:42.335Z,14.70
2023-04-10T17:00:14.084Z,14.70
2023-04-10T17:02:48.961Z,14.70
2023-04-10T17:05:19.427Z,14.60
2023-04-10T17:07:49.808Z,14.50
2023-04-10T17:10:21.043Z,14.50
2023-04-10T17:12:51.414Z,14.40
2023-04-10T17:15:21.981Z,14.40
2023-04-10T17:17:55.088Z,14.40
2023-04-10T17:20:25.688Z,14.30
2023-04-10T17:22:56.102Z,14.30
2023-04-10T17:25:26.552Z,14.20
2023-04-10T17:27:57.004Z,14.20
2023-04-10T17:30:27.612Z,14.20
2023-04-10T17:33:00.673Z,14.20
2023-04-10T17:35:31.089Z,14.00
2023-04-10T17:38:01.498Z,14.10
2023-04-10T17:40:32.156Z,14.20
2023-04-10T17:43:02.549Z,14.10
2023-04-10T17:45:32.884Z,14.10
2023-04-10T17:48:06.272Z,14.20
2023-04-10T17:50:36.906Z,14.10
2023-04-10T17:53:07.267Z,14.10
2023-04-10T17:55:42.478Z,14.10
2023-04-10T17:58:13.547Z,14.10
2023-04-10T18:00:45.494Z,14.00
2023-04-10T18:03:19.395Z,14.00
2023-04-10T18:05:50.181Z,13.80
2023-04-10T18:08:21.709Z,13.80
2023-04-10T18:10:52.383Z,13.90
2023-04-10T18:13:22.897Z,13.90
2023-04-10T18:15:53.722Z,13.90
2023-04-10T18:18:27.115Z,13.90
2023-04-10T18:20:57.748Z,13.80
2023-04-10T18:23:28.682Z,13.80
2023-04-10T18:25:59.933Z,13.60
2023-04-10T18:28:30.770Z,13.60
2023-04-10T18:31:01.543Z,13.60
2023-04-10T18:33:35.073Z,13.60
2023-04-10T18:36:06.246Z,13.60
2023-04-10T18:38:37.659Z,13.70
2023-04-10T18:41:08.746Z,13.70
2023-04-10T18:43:40.617Z,13.60
2023-04-10T18:46:11.572Z,13.50
2023-04-10T18:48:47.204Z,13.60
2023-04-10T18:51:17.641Z,13.60
2023-04-10T18:53:48.205Z,13.60
2023-04-10T18:56:18.819Z,13.50
2023-04-10T18:58:50.287Z,13.50
2023-04-10T19:01:21.077Z,13.50
2023-04-10T19:03:55.390Z,13.50
2023-04-10T19:06:28.139Z,13.50
2023-04-10T19:08:59.082Z,13.40
2023-04-10T19:11:30.306Z,13.50
2023-04-10T19:14:01.155Z,13.50
2023-04-10T19:19:05.431Z,13.40
2023-04-10T19:21:36.113Z,13.40
2023-04-10T19:24:07.213Z,13.30
2023-04-10T19:26:38.143Z,13.30
2023-04-10T19:29:09.252Z,13.40
2023-04-10T19:31:39.928Z,13.40
2023-04-10T19:34:13.322Z,13.40
2023-04-10T19:36:43.843Z,13.40
2023-04-10T19:39:14.292Z,13.30
2023-04-10T19:41:45.248Z,13.30
2023-04-10T19:44:15.959Z,13.30
2023-04-10T19:46:47.023Z,13.30
2023-04-10T19:49:20.788Z,13.30
2023-04-10T19:51:51.401Z,13.20
2023-04-10T19:54:22.090Z,13.20
2023-04-10T19:56:52.450Z,13.20
2023-04-10T19:59:23.226Z,13.20
2023-04-10T20:01:54.187Z,13.20
2023-04-10T20:04:29.918Z,13.20
2023-04-10T20:07:00.699Z,13.10
2023-04-10T20:09:31.840Z,13.10
2023-04-10T20:12:02.524Z,13.10
2023-04-10T20:14:33.425Z,13.10
2023-04-10T20:17:04.016Z,13.00
2023-04-10T20:19:39.781Z,13.10
2023-04-10T20:22:11.119Z,13.00
2023-04-10T20:24:41.689Z,13.00
2023-04-10T20:27:13.892Z,13.00
2023-04-10T20:29:44.620Z,13.00
2023-04-10T20:32:14.998Z,12.90
2023-04-10T20:34:48.193Z,13.00
2023-04-10T20:37:22.128Z,13.00
2023-04-10T20:39:53.887Z,12.90
2023-04-10T20:42:24.392Z,12.90
2023-04-10T20:44:55.676Z,12.90
2023-04-10T20:47:26.221Z,12.90
2023-04-10T20:50:02.823Z,12.90
2023-04-10T20:52:33.189Z,12.70
2023-04-10T20:55:03.863Z,12.80
2023-04-10T20:57:34.250Z,12.80
2023-04-10T21:00:04.670Z,12.80
2023-04-10T21:02:35.234Z,12.80
2023-04-10T21:05:08.980Z,12.70
2023-04-10T21:07:39.410Z,12.70
2023-04-10T21:10:10.793Z,12.70
2023-04-10T21:12:41.350Z,12.70
2023-04-10T21:15:12.992Z,12.70
2023-04-10T21:17:43.406Z,12.70
2023-04-10T21:20:16.939Z,12.60
2023-04-10T21:22:47.368Z,12.70
2023-04-10T21:25:17.785Z,12.70
2023-04-10T21:27:48.792Z,12.60
2023-04-10T21:30:20.023Z,12.60
2023-04-10T21:32:50.805Z,12.60
2023-04-10T21:35:23.828Z,12.50
2023-04-10T21:37:59.988Z,12.50
2023-04-10T21:40:34.696Z,12.40
2023-04-10T21:43:05.353Z,12.40
2023-04-10T21:45:37.957Z,12.50
2023-04-10T21:48:08.603Z,12.50
2023-04-10T21:50:41.620Z,12.40
2023-04-10T21:53:11.991Z,12.40
2023-04-10T21:55:42.602Z,12.40
2023-04-10T21:58:13.024Z,12.40
2023-04-10T22:00:47.339Z,12.40
2023-04-10T22:03:20.606Z,12.30
2023-04-10T22:05:53.801Z,12.30
2023-04-10T22:08:24.206Z,12.30
2023-04-10T22:10:54.877Z,12.30
2023-04-10T22:13:30.915Z,12.30
2023-04-10T22:16:02.937Z,12.20
2023-04-10T22:18:33.626Z,12.30
2023-04-10T22:21:06.732Z,12.10
2023-04-10T22:23:37.138Z,12.10
2023-04-10T22:26:07.928Z,12.10
2023-04-10T22:28:38.316Z,12.10
2023-04-10T22:31:09.193Z,12.00
2023-04-10T22:33:41.149Z,12.00
2023-04-10T22:36:14.772Z,12.10
2023-04-10T22:38:45.305Z,12.00
2023-04-10T22:41:16.046Z,12.00
2023-04-10T22:43:46.519Z,12.00
2023-04-10T22:46:17.033Z,12.00
2023-04-10T22:48:47.519Z,11.90
2023-04-10T22:51:20.741Z,11.90
2023-04-10T22:53:51.464Z,11.90
2023-04-10T22:56:25.213Z,11.90
2023-04-10T22:58:55.766Z,11.90
2023-04-10T23:01:26.668Z,11.80
2023-04-10T23:03:57.147Z,11.80
2023-04-10T23:06:30.276Z,11.80
2023-04-10T23:09:01.239Z,11.70
2023-04-10T23:11:31.673Z,11.70
2023-04-10T23:14:02.112Z,11.60
2023-04-10T23:16:32.745Z,11.70
2023-04-10T23:19:03.115Z,11.70
2023-04-10T23:21:36.381Z,11.60
2023-04-10T23:24:07.002Z,11.50
2023-04-10T23:26:37.741Z,11.50
2023-04-10T23:29:08.173Z,11.60
2023-04-10T23:31:38.743Z,11.60
2023-04-10T23:34:09.186Z,11.50
2023-04-10T23:36:42.538Z,11.50
2023-04-10T23:39:13.897Z,11.50
2023-04-10T23:41:44.477Z,11.40
2023-04-10T23:44:15.207Z,11.50
2023-04-10T23:46:45.740Z,11.50
2023-04-10T23:49:16.107Z,11.50
2023-04-10T23:51:49.151Z,11.40
2023-04-10T23:54:19.609Z,11.40
2023-04-10T23:56:50.077Z,11.30
2023-04-10T23:59:20.954Z,11.40
